Tiempo atmosférico en la estación meteorológica de Alconchel, Badajoz (170 m.)



Fecha
DESCASC
Temp. máxima en grados centígrados (hora)
DESCASC
Temp. mínima en grados centígrados (hora)
DESCASC
Temp. media en grados centígrados
DESCASC
Racha de viento máxima en m/sg (hora)
DESCASC
Velocidad máxima media en intervalos de 10 minutos(hora)
DESCASC
Precipitaciones diarias en mm
DESCASC
Precipitaciones de 00:00 a 06:00 en mm
DESCASC
Precipitaciones de 06:00 a 12:00 en mm
DESCASC
Precipitaciones de 12:00 a 18:00 en mm
DESCASC
Precipitaciones de 18:00 a 24:00 en mm
DESCASC
21-02-2019 19.3 (17:10) 5.1 (08:30) 12.2 4.17 (16:50) 2.78 (17:30) 0 0 0 0 0
20-02-2019 17.1 (16:30) 5.1 (08:50) 11.1 3.33 (16:10) 2.22 (01:00) 0 0 0 0 0
19-02-2019 17.6 (16:20) 8.4 (08:40) 13 5.28 (20:50) 3.89 (20:50) 1 0.2 0 0 0.8
18-02-2019 13.5 (18:00) 10.5 (22:50) 12 6.94 (04:20) 5 (04:00) 1.4 0 0.6 0.8 0
17-02-2019 16 (15:10) 3.1 (00:00) 9.5 5 (20:30) 3.61 (15:10) 0 0 0 0 0
16-02-2019 18.6 (16:00) 6.7 (00:00) 12.7 6.11 (03:30) 4.17 (04:10) 0 0 0 0 0
15-02-2019 19.3 (16:20) 3.9 (00:00) 11.6 7.5 (22:00) 5.28 (22:00) 0 0 0 0 0
14-02-2019 19.6 (16:10) 4.2 (00:00) 11.9 7.22 (15:30) 5 (15:40) 0 0 0 0 0
13-02-2019 19.9 (16:40) 4.4 (00:00) 12.1 6.67 (20:50) 5 (20:50) 0 0 0 0 0
12-02-2019 17.5 (16:40) 4.7 (00:00) 11.1 8.33 (13:40) 5.28 (13:40) 0 0 0 0 0
11-02-2019 15.8 (17:00) 5.1 (00:00) 10.5 6.39 (02:50) 4.17 (02:50) 0.4 0.4 0 0 0
10-02-2019 16.1 (15:10) 6.3 (00:00) 11.2 7.78 (17:50) 4.72 (14:50) 0 0 0 0 0
09-02-2019 15 (15:40) 1.9 (00:00) 8.4 4.44 (14:50) 2.22 (14:50) 0 0 0 0 0
08-02-2019 15.2 (17:30) 2.1 (00:00) 8.6 7.5 (20:20) 4.44 (20:20) 0 0 0 0 0
07-02-2019 15.6 (17:30) 1.9 (00:00) 8.8 4.72 (16:50) 3.33 (17:10) 0 0 0 0 0
06-02-2019 18.3 (16:50) 3.1 (00:00) 10.7 3.33 (12:30) 2.22 (07:20) 0 0 0 0 0
05-02-2019 15.8 (16:10) 0.6 (00:00) 8.2 4.72 (12:50) 3.33 (16:20) 0 0 0 0 0
04-02-2019 13.1 (16:20) -0.9 (-00:0) 6.1 4.44 (11:00) 3.06 (15:40) 0 0 0 0 0
03-02-2019 11.4 (15:10) 0.1 (00:00) 5.7 8.33 (15:10) 4.72 (14:50) 0 0 0 0 0
02-02-2019 11.9 (16:10) 5.2 (00:00) 8.5 12.78 (16:40) 8.61 (15:50) 0.2 0.2 0 0 0
01-02-2019 13.3 (01:10) 6 (00:00) 9.7 20.28 (16:20) 13.06 (15:10) 12.8 10 0 1.2 1.6
31-01-2019 15.5 (13:40) 11.9 (00:00) 13.7 14.17 (13:30) 9.44 (15:10) 2.8 1.4 0.2 0 1.2
30-01-2019 12.3 (18:40) 8.7 (00:00) 10.5 8.89 (23:59) 5.83 (22:50) 1.6 0.2 0 0.8 0.6
29-01-2019 13.2 (15:00) 8.8 (00:00) 11 12.22 (16:10) 7.22 (15:10) 0 0 0 0 0
28-01-2019 14 (15:40) 5.6 (00:00) 9.8 10 (12:20) 6.94 (13:40) 0 0 0 0 0
27-01-2019 13.9 (16:00) 2.5 (00:00) 8.2 11.39 (13:40) 7.22 (13:40) 0 0 0 0 0
26-01-2019 18 (17:50) 2.9 (00:00) 10.5 3.61 (22:20) 2.78 (22:20) 0 0 0 0 0
25-01-2019 18 (15:00) 4 (00:00) 11 5.83 (13:00) 3.89 (12:30) 0 0 0 0 0
24-01-2019 18.4 (16:40) 8.9 (00:00) 13.6 10.28 (00:40) 6.39 (00:40) 0 0 0 0 0

Gráficas

Temp. máximas Temp. mínimas Temp. medias Precipitaciones Rachas de viento máximas Velocidades máximas media en intervalos de 10 minutos

Datos horarios

Fecha y hora oficial Temperatura (ºC) Velocidad del viento (km/h) Dirección del viento Racha (km/h) Dirección de racha Precipitación (mm) Presión (hPa) Tendencia (hPa) Humedad (%)
2019-02-22 23:00:00 11.6 5 Sudeste 11 Este 0 -- -- 77
2019-02-22 22:00:00 12.6 0 Calma 5 Sudeste 0 -- -- 78
2019-02-22 21:00:00 15 5 Sudeste 6 Sudeste 0 -- -- 65
2019-02-22 20:00:00 16 3 Sur 9 Sudoeste 0 -- -- 62
2019-02-22 19:00:00 17.9 4 Oeste 8 Oeste 0 -- -- 54
2019-02-22 18:00:00 19.3 7 Oeste 14 Oeste 0 -- -- 51
2019-02-22 17:00:00 19.7 9 Oeste 15 Oeste 0 -- -- 52
2019-02-22 16:00:00 19.9 8 Oeste 13 Sudoeste 0 -- -- 50
2019-02-22 15:00:00 19.9 9 Sur 18 Sur 0 -- -- 47
2019-02-22 14:00:00 19.2 10 Sur 20 Sur 0 -- -- 51
2019-02-22 13:00:00 17.6 4 Sudoeste 9 Oeste 0 -- -- 59
2019-02-22 12:00:00 16.1 3 Sudeste 8 Sudeste 0 -- -- 64
2019-02-22 11:00:00 11.9 0 Calma 5 Nordeste 0 -- -- 80
2019-02-22 10:00:00 8.2 3 Nordeste 10 Norte 0 -- -- 90
2019-02-22 09:00:00 5.9 4 Nordeste 9 Norte 0 -- -- 96
2019-02-22 08:00:00 5.5 0 Calma 8 Nordeste 0 -- -- 95
2019-02-22 07:00:00 6.1 3 Norte 7 Nordeste 0 -- -- 96
2019-02-22 06:00:00 6.2 0 Calma 5 Nordeste 0 -- -- 91
2019-02-22 05:00:00 6.2 2 Nordeste 9 Este 0 -- -- 91
2019-02-22 04:00:00 7.4 3 Nordeste 4 Norte 0 -- -- 91
2019-02-22 03:00:00 8.5 0 Calma 3 Sur 0 -- -- 89
2019-02-22 02:00:00 8.8 0 Calma 5 Este 0 -- -- 84
2019-02-22 01:00:00 10.2 3 Sudeste 12 Este 0 -- -- 80
2019-02-22 00:00:00 10.8 8 Este 10 Este 0 -- -- 78
2019-02-21 23:00:00 11.5 0 Calma 4 Nordeste 0 -- -- 77
2019-02-21 22:00:00 12.2 3 Sur 8 Este 0 -- -- 74
2019-02-21 21:00:00 14.1 5 Sudeste 6 Sudeste 0 -- -- 66
2019-02-21 20:00:00 15 2 Oeste 8 Oeste 0 -- -- 64
2019-02-21 19:00:00 16.1 4 Oeste 12 Sudoeste 0 -- -- 63
2019-02-21 18:00:00 18.6 7 Sur 15 Sur 0 -- -- 54
2019-02-21 17:00:00 19.2 8 Sudoeste 15 Sur 0 -- -- 49
2019-02-21 16:00:00 18.7 5 Oeste 10 Oeste 0 -- -- 54
2019-02-21 15:00:00 17.4 6 Oeste 11 Oeste 0 -- -- 58
2019-02-21 14:00:00 16.8 5 Noroeste 8 Oeste 0 -- -- 60
2019-02-21 13:00:00 15.6 5 Oeste 10 Oeste 0 -- -- 66
2019-02-21 12:00:00 13.7 3 Sudoeste 10 Oeste 0 -- -- 77
2019-02-21 11:00:00 10.9 5 Noroeste 8 Noroeste 0 -- -- 86
2019-02-21 10:00:00 7.7 0 Calma 5 Norte 0 -- -- 95
2019-02-21 09:00:00 5.5 0 Calma 5 Nordeste 0 -- -- 96
2019-02-21 08:00:00 5.6 3 Nordeste 8 Nordeste 0 -- -- 95
2019-02-21 07:00:00 5.9 3 Nordeste 6 Este 0 -- -- 96
2019-02-21 06:00:00 6.5 4 Este 9 Este 0 -- -- 95
2019-02-21 05:00:00 7.4 0 Calma 4 Sudoeste 0 -- -- 95
2019-02-21 04:00:00 7.8 4 Este 7 Este 0 -- -- 94
2019-02-21 03:00:00 8.1 0 Calma 6 Este 0 -- -- 93
2019-02-21 02:00:00 8.1 0 Calma 10 Este 0 -- -- 95
2019-02-21 01:00:00 9.1 8 Este 10 Este 0 -- -- 90
2019-02-21 00:00:00 10.1 0 Calma 5 Este 0 -- -- 88
2019-02-20 23:00:00 10.9 5 Este 5 Este 0 -- -- 84
2019-02-20 22:00:00 12.1 0 Calma 4 Sudoeste 0 -- -- 85
2019-02-20 21:00:00 12.6 0 Calma 7 Nordeste 0 -- -- 79
2019-02-20 20:00:00 14 5 Nordeste 6 Nordeste 0 -- -- 69
2019-02-20 19:00:00 15.5 3 Noroeste 5 Oeste 0 -- -- 67
2019-02-20 18:00:00 17 4 Oeste 7 Noroeste 0 -- -- 63
2019-02-20 17:00:00 17.1 5 Noroeste 12 Oeste 0 -- -- 61
2019-02-20 16:00:00 16.9 6 Oeste 10 Oeste 0 -- -- 67
2019-02-20 15:00:00 15.4 5 Noroeste 11 Oeste 0 -- -- 68
2019-02-20 14:00:00 14.1 7 Oeste 10 Oeste 0 -- -- 78
2019-02-20 13:00:00 12.9 6 Noroeste 11 Norte 0 -- -- 87
2019-02-20 12:00:00 10 6 Noroeste 11 Norte 0 -- -- 100
2019-02-20 11:00:00 8.1 5 Norte 9 Norte 0 -- -- 100
2019-02-20 10:00:00 6.6 5 Norte 6 Norte 0 -- -- 100
2019-02-20 09:00:00 5.1 0 Calma 6 Sudeste 0 -- -- 100
2019-02-20 08:00:00 6.1 0 Calma 6 Norte 0 -- -- 99
2019-02-20 07:00:00 6.3 4 Norte 10 Nordeste 0 -- -- 99
2019-02-20 06:00:00 6.6 2 Nordeste 7 Nordeste 0 -- -- 97
2019-02-20 05:00:00 8.1 0 Calma 3 Sur 0 -- -- 96
2019-02-20 04:00:00 9.2 3 Sudeste 5 Sudeste 0 -- -- 96
2019-02-20 03:00:00 9.4 3 Sudeste 6 Sur 0 -- -- 95
2019-02-20 02:00:00 9.6 4 Sudeste 6 Este 0 -- -- 94
2019-02-20 01:00:00 9.9 8 Este 10 Este 0 -- -- 93
2019-02-20 00:00:00 10.1 4 Norte 12 Sudeste 0 -- -- 92
2019-02-19 23:00:00 10.8 8 Sudeste 12 Sudeste 0 -- -- 89
2019-02-19 22:00:00 11.2 8 Sudeste 14 Este 0 -- -- 90
2019-02-19 21:00:00 11.9 13 Este 19 Sudeste 0 -- -- 87
2019-02-19 20:00:00 13.2 3 Este 18 Oeste 0.8 -- -- 83
2019-02-19 19:00:00 15.4 4 Sudoeste 5 Sur 0 -- -- 71
2019-02-19 18:00:00 16.8 5 Sudoeste 8 Sudoeste 0 -- -- 67
2019-02-19 17:00:00 17.5 4 Oeste 10 Oeste 0 -- -- 65
2019-02-19 16:00:00 17.3 3 Noroeste 9 Oeste 0 -- -- 67
2019-02-19 15:00:00 16.3 4 Oeste 11 Noroeste 0 -- -- 70
2019-02-19 14:00:00 15.5 4 Sudoeste 8 Sudoeste 0 -- -- 77
2019-02-19 13:00:00 14.6 5 Noroeste 9 Noroeste 0 -- -- 76
2019-02-19 12:00:00 12.7 4 Sudoeste 7 Sudoeste 0 -- -- 87
2019-02-19 11:00:00 12.6 4 Sudoeste 8 Sur 0 -- -- 86
2019-02-19 10:00:00 10.4 0 Calma 2 Norte 0 -- -- 97
2019-02-19 09:00:00 8.6 0 Calma 3 Sur 0 -- -- 97
2019-02-19 08:00:00 8.5 0 Calma 4 Sudeste 0 -- -- 96
2019-02-19 07:00:00 8.9 3 Nordeste 8 Sudeste 0 -- -- 95
2019-02-19 06:00:00 9.4 5 Nordeste 7 Nordeste 0 -- -- 94
2019-02-19 05:00:00 9.7 3 Nordeste 5 Nordeste 0 -- -- 94
2019-02-19 04:00:00 10 0 Calma 7 Norte 0 -- -- 95
2019-02-19 03:00:00 9.9 4 Norte 8 Norte 0 -- -- 95
2019-02-19 02:00:00 10.3 4 Norte 8 Sur 0.2 -- -- 94
2019-02-19 01:00:00 10.5 0 Calma 14 Este 0 -- -- 90
2019-02-19 00:00:00 10.9 9 Este 18 Nordeste 0 -- -- 90
2019-02-18 23:00:00 10.5 13 Nordeste 23 Norte 0 -- -- 93
2019-02-18 22:00:00 11.2 15 Norte 21 Norte 0 -- -- 90
2019-02-18 21:00:00 11.5 9 Nordeste 15 Norte 0 -- -- 90
2019-02-18 20:00:00 12.4 13 Norte 16 Norte 0 -- -- 89
2019-02-18 19:00:00 13 8 Norte 19 Nordeste 0 -- -- 87
2019-02-18 18:00:00 13.5 12 Norte 19 Norte 0 -- -- 85
2019-02-18 17:00:00 13.3 12 Nordeste 20 Nordeste 0 -- -- 85
2019-02-18 16:00:00 12.6 12 Nordeste 18 Nordeste 0 -- -- 89
2019-02-18 15:00:00 12.2 9 Nordeste 14 Nordeste 0 -- -- 91
2019-02-18 14:00:00 11.9 9 Nordeste 12 Nordeste 0 -- -- 92
2019-02-18 13:00:00 11.4 6 Nordeste 9 Nordeste 0.8 -- -- 93
2019-02-18 12:00:00 11.1 7 Norte 12 Norte 0.4 -- -- 93
2019-02-18 11:00:00 11.1 6 Norte 13 Oeste 0.2 -- -- 92
2019-02-18 10:00:00 11.6 5 Sudeste 14 Este 0 -- -- 82
2019-02-18 09:00:00 11.3 4 Este 9 Este 0 -- -- 82
2019-02-18 08:00:00 11.8 4 Sudeste 12 Sur 0 -- -- 81
2019-02-18 07:00:00 11.7 6 Sur 12 Sur 0 -- -- 83
2019-02-18 06:00:00 11.5 8 Sudeste 19 Sur 0 -- -- 85
2019-02-18 05:00:00 11.6 14 Sur 25 Sur 0 -- -- 86
2019-02-18 04:00:00 11.8 18 Sur 24 Sur 0 -- -- 85
2019-02-18 03:00:00 11.8 15 Sur 22 Sur 0 -- -- 87
2019-02-18 02:00:00 11.8 13 Sur 20 Sur 0 -- -- 86
2019-02-18 01:00:00 11.9 13 Sur 23 Sur 0 -- -- 86
2019-02-18 00:00:00 11.1 5 Sur 10 Sur 0 -- -- 87
2019-02-17 23:00:00 11.1 3 Sur 14 Sur 0 -- -- 82
2019-02-17 22:00:00 11.8 8 Sur 15 Sur 0 -- -- 80
2019-02-17 21:00:00 12.6 11 Sur 18 Sur 0 -- -- 79
2019-02-17 20:00:00 13.5 10 Sur 15 Sudoeste 0 -- -- 77
2019-02-17 19:00:00 14.1 9 Sudoeste 12 Sur 0 -- -- 73
2019-02-17 18:00:00 14.7 4 Sudoeste 12 Sudoeste 0 -- -- 70
2019-02-17 17:00:00 15.5 5 Sudoeste 14 Oeste 0 -- -- 64
2019-02-17 16:00:00 15.5 11 Oeste 16 Oeste 0 -- -- 64
2019-02-17 15:00:00 15.9 9 Oeste 15 Oeste 0 -- -- 63
2019-02-17 14:00:00 15 5 Oeste 11 Oeste 0 -- -- 69
2019-02-17 13:00:00 13.6 4 Oeste 8 Oeste 0 -- -- 72
2019-02-17 12:00:00 11.2 4 Oeste 13 Oeste 0 -- -- 79
2019-02-17 11:00:00 8.3 3 Oeste 12 Noroeste 0 -- -- 88
2019-02-17 10:00:00 5.8 2 Norte 6 Noroeste 0 -- -- 92
2019-02-17 09:00:00 3.8 0 Calma 4 Norte 0 -- -- 92
2019-02-17 08:00:00 3.8 0 Calma 5 Nordeste 0 -- -- 92
2019-02-17 07:00:00 4.3 2 Este 6 Este 0 -- -- 94
2019-02-17 06:00:00 4.2 0 Calma 8 Este 0 -- -- 90
2019-02-17 05:00:00 4.7 3 Este 8 Este 0 -- -- 90
2019-02-17 04:00:00 5.1 3 Sudeste 6 Sudeste 0 -- -- 91
2019-02-17 03:00:00 6.4 4 Este 12 Noroeste 0 -- -- 89
2019-02-17 02:00:00 7.3 4 Norte 10 Nordeste 0 -- -- 88
2019-02-17 01:00:00 7.5 6 Nordeste 8 Nordeste 0 -- -- 85
2019-02-17 00:00:00 8.1 2 Norte 12 Este 0 -- -- 82
2019-02-16 23:00:00 9.5 10 Este 14 Este 0 -- -- 77
2019-02-16 22:00:00 10.1 9 Este 14 Este 0 -- -- 81
2019-02-16 21:00:00 12.3 2 Nordeste 9 Sudeste 0 -- -- 72
2019-02-16 20:00:00 13.8 3 Sudoeste 9 Sur 0 -- -- 70
2019-02-16 19:00:00 15.2 6 Sudoeste 14 Oeste 0 -- -- 68
2019-02-16 18:00:00 17.6 8 Oeste 17 Oeste 0 -- -- 60
2019-02-16 17:00:00 18.1 9 Noroeste 19 Norte 0 -- -- 57
2019-02-16 16:00:00 18.6 13 Norte 22 Norte 0 -- -- 55
2019-02-16 15:00:00 17.5 10 Norte 20 Norte 0 -- -- 65
2019-02-16 14:00:00 15.8 11 Nordeste 20 Nordeste 0 -- -- 66
2019-02-16 13:00:00 14.7 13 Nordeste 20 Nordeste 0 -- -- 68
2019-02-16 12:00:00 11.9 8 Norte 18 Norte 0 -- -- 79
2019-02-16 11:00:00 9.1 9 Nordeste 14 Nordeste 0 -- -- 83
2019-02-16 10:00:00 7.6 5 Nordeste 14 Nordeste 0 -- -- 88
2019-02-16 09:00:00 7.3 8 Nordeste 17 Nordeste 0 -- -- 88
2019-02-16 08:00:00 7.5 8 Nordeste 17 Nordeste 0 -- -- 87
2019-02-16 07:00:00 7.4 9 Nordeste 13 Nordeste 0 -- -- 90
2019-02-16 06:00:00 8.1 4 Sur 17 Nordeste 0 -- -- 85
2019-02-16 05:00:00 8.2 8 Nordeste 22 Nordeste 0 -- -- 86
2019-02-16 04:00:00 8.4 12 Nordeste 22 Nordeste 0 -- -- 86
2019-02-16 03:00:00 8.3 9 Nordeste 15 Nordeste 0 -- -- 87
2019-02-16 02:00:00 8.8 10 Nordeste 16 Nordeste 0 -- -- 85
2019-02-16 01:00:00 9.1 7 Nordeste 12 Nordeste 0 -- -- 83
2019-02-16 00:00:00 10.7 11 Nordeste 21 Nordeste 0 -- -- 76
2019-02-15 23:00:00 11.8 14 Nordeste 26 Nordeste 0 -- -- 70
2019-02-15 22:00:00 12.2 19 Nordeste 27 Nordeste 0 -- -- 67
2019-02-15 21:00:00 13.9 14 Nordeste 23 Nordeste 0 -- -- 57
2019-02-15 20:00:00 15.1 15 Nordeste 24 Nordeste 0 -- -- 55
2019-02-15 19:00:00 15.7 14 Nordeste 21 Nordeste 0 -- -- 58
2019-02-15 18:00:00 17.4 15 Norte 22 Nordeste 0 -- -- 57
2019-02-15 17:00:00 18.6 12 Nordeste 26 Nordeste 0 -- -- 55
2019-02-15 16:00:00 18.8 16 Nordeste 24 Nordeste 0 -- -- 58
2019-02-15 15:00:00 17.5 13 Norte 21 Norte 0 -- -- 63
2019-02-15 14:00:00 15.7 10 Nordeste 18 Nordeste 0 -- -- 66
2019-02-15 13:00:00 13.8 9 Norte 17 Norte 0 -- -- 71
2019-02-15 12:00:00 11 10 Norte 15 Norte 0 -- -- 79
2019-02-15 11:00:00 8.4 7 Nordeste 11 Norte 0 -- -- 88
2019-02-15 10:00:00 6 3 Nordeste 13 Nordeste 0 -- -- 93
2019-02-15 09:00:00 5.3 3 Nordeste 10 Nordeste 0 -- -- 96
2019-02-15 08:00:00 4.1 0 Calma 5 Norte 0 -- -- 96
2019-02-15 07:00:00 4.5 0 Calma 5 Nordeste 0 -- -- 94
2019-02-15 06:00:00 5.2 0 Calma 8 Nordeste 0 -- -- 93
2019-02-15 05:00:00 5.9 5 Nordeste 10 Nordeste 0 -- -- 94
2019-02-15 04:00:00 6.6 3 Norte 5 Noroeste 0 -- -- 92
2019-02-15 03:00:00 7.6 3 Noroeste 4 Noroeste 0 -- -- 90
2019-02-15 02:00:00 8.7 0 Calma 4 Oeste 0 -- -- 88
2019-02-15 01:00:00 9.4 0 Calma 7 Este 0 -- -- 81
2019-02-15 00:00:00 10.4 6 Sudeste 8 Sudeste 0 -- -- 77
2019-02-14 23:00:00 10.8 5 Sudoeste 15 Sudeste 0 -- -- 79
2019-02-14 22:00:00 11.8 8 Este 16 Sudeste 0 -- -- 73
2019-02-14 21:00:00 13.7 10 Sudeste 16 Sudeste 0 -- -- 69
2019-02-14 20:00:00 15.1 6 Sur 10 Sudoeste 0 -- -- 65
2019-02-14 19:00:00 16.4 6 Sudoeste 17 Sur 0 -- -- 63
2019-02-14 18:00:00 18.8 14 Sur 24 Sur 0 -- -- 54
2019-02-14 17:00:00 19.4 15 Sur 23 Sur 0 -- -- 50
2019-02-14 16:00:00 19.5 14 Sudoeste 26 Sur 0 -- -- 51
2019-02-14 15:00:00 19.1 8 Sudoeste 15 Sudoeste 0 -- -- 54
2019-02-14 14:00:00 18 4 Oeste 13 Sudeste 0 -- -- 58
2019-02-14 13:00:00 15.5 9 Norte 15 Norte 0 -- -- 69
2019-02-14 12:00:00 13.5 6 Norte 11 Norte 0 -- -- 75
2019-02-14 11:00:00 9.9 5 Nordeste 9 Nordeste 0 -- -- 84
2019-02-14 10:00:00 6.3 2 Norte 9 Nordeste 0 -- -- 94
2019-02-14 09:00:00 4.5 4 Norte 8 Nordeste 0 -- -- 97
2019-02-14 08:00:00 4.3 2 Oeste 4 Sudoeste 0 -- -- 96
2019-02-14 07:00:00 5.1 0 Calma 3 Sur 0 -- -- 97
2019-02-14 06:00:00 5.9 0 Calma 4 Noroeste 0 -- -- 96
2019-02-14 05:00:00 6.2 0 Calma 3 Noroeste 0 -- -- 96
2019-02-14 04:00:00 6.8 0 Calma 3 Nordeste 0 -- -- 94
2019-02-14 03:00:00 7.6 0 Calma 3 Norte 0 -- -- 93
2019-02-14 02:00:00 8.2 0 Calma 4 Sudeste 0 -- -- 91
2019-02-14 01:00:00 9.2 0 Calma 5 Norte 0 -- -- 84
2019-02-14 00:00:00 10.8 5 Sudeste 11 Sur 0 -- -- 78
2019-02-13 23:00:00 11.5 9 Sudeste 11 Sudeste 0 -- -- 77
2019-02-13 22:00:00 12.5 9 Sudeste 17 Este 0 -- -- 74
2019-02-13 21:00:00 13.5 12 Sudeste 24 Nordeste 0 -- -- 71
2019-02-13 20:00:00 14.8 9 Este 17 Sudeste 0 -- -- 66
2019-02-13 19:00:00 16.7 8 Nordeste 18 Este 0 -- -- 60
2019-02-13 18:00:00 18.4 12 Nordeste 20 Nordeste 0 -- -- 54
2019-02-13 17:00:00 19.7 9 Sudoeste 20 Sudoeste 0 -- -- 51
2019-02-13 16:00:00 19.5 6 Este 21 Este 0 -- -- 53
2019-02-13 15:00:00 18.4 11 Este 23 Nordeste 0 -- -- 57
2019-02-13 14:00:00 17 12 Nordeste 22 Nordeste 0 -- -- 64
2019-02-13 13:00:00 15.1 10 Norte 17 Noroeste 0 -- -- 71
2019-02-13 12:00:00 12.9 8 Norte 12 Nordeste 0 -- -- 77
2019-02-13 11:00:00 10.3 6 Norte 9 Norte 0 -- -- 83
2019-02-13 10:00:00 7.4 0 Calma 5 Nordeste 0 -- -- 90
2019-02-13 09:00:00 4.9 0 Calma 5 Norte 0 -- -- 92
2019-02-13 08:00:00 4.7 3 Norte 8 Nordeste 0 -- -- 92
2019-02-13 07:00:00 4.7 4 Norte 5 Nordeste 0 -- -- 91
2019-02-13 06:00:00 5.6 0 Calma 8 Nordeste 0 -- -- 87
2019-02-13 05:00:00 5.9 3 Norte 5 Norte 0 -- -- 86
2019-02-13 04:00:00 7.1 0 Calma 4 Norte 0 -- -- 82
2019-02-13 03:00:00 7.6 0 Calma 5 Norte 0 -- -- 82
2019-02-13 02:00:00 8.1 0 Calma 8 Norte 0 -- -- 81
2019-02-13 01:00:00 8.7 4 Norte 8 Norte 0 -- -- 79
2019-02-13 00:00:00 9.5 0 Calma 10 Nordeste 0 -- -- 76
2019-02-12 23:00:00 10.4 2 Nordeste 10 Nordeste 0 -- -- 74
2019-02-12 22:00:00 11.9 12 Nordeste 22 Nordeste 0 -- -- 69
2019-02-12 21:00:00 12.5 4 Norte 6 Norte 0 -- -- 70
2019-02-12 20:00:00 13.6 5 Norte 12 Nordeste 0 -- -- 65
2019-02-12 19:00:00 14.9 9 Nordeste 17 Nordeste 0 -- -- 62
2019-02-12 18:00:00 16.9 10 Norte 19 Norte 0 -- -- 55
2019-02-12 17:00:00 17.4 14 Nordeste 23 Norte 0 -- -- 53
2019-02-12 16:00:00 17.2 16 Norte 28 Norte 0 -- -- 53
2019-02-12 15:00:00 16.8 17 Norte 25 Norte 0 -- -- 57
2019-02-12 14:00:00 15.9 15 Nordeste 30 Norte 0 -- -- 62
2019-02-12 13:00:00 14.2 10 Norte 21 Norte 0 -- -- 76
2019-02-12 12:00:00 11.7 11 Norte 19 Norte 0 -- -- 82
2019-02-12 11:00:00 9.6 10 Norte 16 Norte 0 -- -- 88
2019-02-12 10:00:00 7 10 Nordeste 17 Nordeste 0 -- -- 95
2019-02-12 09:00:00 5.4 5 Norte 12 Norte 0 -- -- 98
2019-02-12 08:00:00 4.7 0 Calma 7 Nordeste 0 -- -- 97
2019-02-12 07:00:00 5.3 0 Calma 18 Nordeste 0 -- -- 96
2019-02-12 06:00:00 5.2 5 Nordeste 12 Nordeste 0 -- -- 97
2019-02-12 05:00:00 4.9 6 Norte 9 Nordeste 0 -- -- 97
2019-02-12 04:00:00 5.3 3 Sur 7 Nordeste 0 -- -- 95
2019-02-12 03:00:00 6.4 0 Calma 15 Nordeste 0 -- -- 93
2019-02-12 02:00:00 6.7 0 Calma 4 Nordeste 0 -- -- 92
2019-02-12 01:00:00 6.9 3 Nordeste 4 Este 0 -- -- 92
2019-02-12 00:00:00 8.2 0 Calma 7 Noroeste 0 -- -- 87
2019-02-11 23:00:00 8.9 0 Calma 9 Nordeste 0 -- -- 84
2019-02-11 22:00:00 9.9 8 Nordeste 10 Nordeste 0 -- -- 81
2019-02-11 21:00:00 11.9 8 Nordeste 17 Nordeste 0 -- -- 73
2019-02-11 20:00:00 12.6 11 Este 14 Este 0 -- -- 65
2019-02-11 19:00:00 14 10 Este 14 Este 0 -- -- 61
2019-02-11 18:00:00 15.6 9 Norte 17 Este 0 -- -- 56
2019-02-11 17:00:00 15.8 7 Nordeste 19 Norte 0 -- -- 58
2019-02-11 16:00:00 15.3 10 Nordeste 23 Nordeste 0 -- -- 54
2019-02-11 15:00:00 14.4 10 Norte 19 Norte 0 -- -- 66
2019-02-11 14:00:00 13 5 Oeste 14 Sudoeste 0 -- -- 75
2019-02-11 13:00:00 10.7 8 Oeste 12 Oeste 0 -- -- 90
2019-02-11 12:00:00 8 3 Norte 11 Nordeste 0 -- -- 97
2019-02-11 11:00:00 6.4 3 Nordeste 9 Este 0 -- -- 99
2019-02-11 10:00:00 5.4 7 Norte 12 Norte 0 -- -- 99
2019-02-11 09:00:00 5.4 0 Calma 10 Norte 0 -- -- 99
2019-02-11 08:00:00 5.4 8 Norte 12 Norte 0 -- -- 97
2019-02-11 07:00:00 5.9 6 Norte 12 Norte 0 -- -- 95
2019-02-11 06:00:00 7.3 4 Norte 13 Norte 0 -- -- 93
2019-02-11 05:00:00 8.7 4 Nordeste 15 Norte 0 -- -- 95
2019-02-11 04:00:00 10.5 9 Noroeste 20 Noroeste 0 -- -- 92
2019-02-11 03:00:00 12.4 14 Noroeste 23 Norte 0 -- -- 95
2019-02-11 02:00:00 12.6 5 Oeste 11 Sudoeste 0 -- -- 99
2019-02-11 01:00:00 12.7 7 Sudoeste 13 Sudoeste 0.4 -- -- 99
2019-02-11 00:00:00 12.8 8 Sudoeste 14 Sudoeste 0 -- -- 98
2019-02-10 23:00:00 12.8 7 Sudoeste 15 Sudoeste 0 -- -- 97
2019-02-10 22:00:00 13.2 11 Sudoeste 17 Sudoeste 0 -- -- 93
2019-02-10 21:00:00 13.5 9 Sudoeste 17 Sudoeste 0 -- -- 88
2019-02-10 20:00:00 13.8 9 Sudoeste 24 Oeste 0 -- -- 86
2019-02-10 19:00:00 14.5 12 Oeste 22 Oeste 0 -- -- 80
2019-02-10 18:00:00 15 15 Oeste 28 Oeste 0 -- -- 77
2019-02-10 17:00:00 15.8 14 Oeste 23 Oeste 0 -- -- 74
2019-02-10 16:00:00 15.5 15 Sudoeste 23 Sudoeste 0 -- -- 77
2019-02-10 15:00:00 15.3 16 Sudoeste 22 Sudoeste 0 -- -- 74
2019-02-10 14:00:00 14.6 11 Sudoeste 17 Sudoeste 0 -- -- 75
2019-02-10 13:00:00 13.6 12 Sudoeste 18 Sudoeste 0 -- -- 81
2019-02-10 12:00:00 11.7 8 Sudoeste 16 Sur 0 -- -- 87
2019-02-10 11:00:00 9.9 9 Sur 14 Sur 0 -- -- 92
2019-02-10 10:00:00 8.7 8 Sur 12 Sur 0 -- -- 95
2019-02-10 09:00:00 7.4 5 Sur 10 Sur 0 -- -- 95
2019-02-10 08:00:00 6.8 4 Sudeste 9 Sudeste 0 -- -- 96
2019-02-10 07:00:00 6.4 5 Sudeste 9 Sudeste 0 -- -- 96
2019-02-10 06:00:00 6.4 7 Sudeste 10 Sudeste 0 -- -- 96
2019-02-10 05:00:00 6.7 5 Sudeste 9 Sudeste 0 -- -- 95
2019-02-10 04:00:00 7.1 7 Sudeste 9 Sudeste 0 -- -- 94
2019-02-10 03:00:00 8 4 Sudeste 5 Sur 0 -- -- 92
2019-02-10 02:00:00 7.9 6 Sudeste 9 Sudeste 0 -- -- 90
2019-02-10 01:00:00 8.4 4 Sudeste 6 Sudeste 0 -- -- 87
2019-02-10 00:00:00 8.2 4 Sudeste 6 Sur 0 -- -- 90
2019-02-09 23:00:00 9.1 3 Este 5 Sudoeste 0 -- -- 87
2019-02-09 22:00:00 9.9 3 Este 5 Sudeste 0 -- -- 84
2019-02-09 21:00:00 11.3 0 Calma 3 Oeste 0 -- -- 84
2019-02-09 20:00:00 11.6 0 Calma 4 Oeste 0 -- -- 78
2019-02-09 19:00:00 13.2 0 Calma 4 Sur 0 -- -- 67
2019-02-09 18:00:00 14.5 4 Sudoeste 9 Sudoeste 0 -- -- 66
2019-02-09 17:00:00 15 8 Sudoeste 10 Sudoeste 0 -- -- 62
2019-02-09 16:00:00 14.8 6 Sudoeste 13 Noroeste 0 -- -- 61
2019-02-09 15:00:00 14.4 8 Oeste 16 Noroeste 0 -- -- 69
2019-02-09 14:00:00 12.8 7 Oeste 10 Oeste 0 -- -- 80
2019-02-09 13:00:00 10.4 4 Oeste 8 Sudoeste 0 -- -- 89
2019-02-09 12:00:00 7.7 7 Oeste 10 Oeste 0 -- -- 99
2019-02-09 11:00:00 5.4 0 Calma 4 Noroeste 0 -- -- 100
2019-02-09 10:00:00 3.2 0 Calma 4 Norte 0 -- -- 100
2019-02-09 09:00:00 2 0 Calma 3 Norte 0 -- -- 99
2019-02-09 08:00:00 2 2 Norte 3 Nordeste 0 -- -- 98
2019-02-09 07:00:00 2.7 0 Calma 2 Sur 0 -- -- 97
2019-02-09 06:00:00 3.3 0 Calma 5 Sudeste 0 -- -- 97
2019-02-09 05:00:00 3.6 2 Sudeste 5 Este 0 -- -- 96
2019-02-09 04:00:00 4.1 3 Sudeste 6 Sudeste 0 -- -- 95
2019-02-09 03:00:00 4.5 6 Sudeste 7 Sudeste 0 -- -- 94
2019-02-09 02:00:00 5.5 0 Calma 4 Sudeste 0 -- -- 93
2019-02-09 01:00:00 5.8 4 Sudeste -- -- 0 -- -- 93
2019-02-09 00:00:00 6.5 2 Sudeste 5 Sudeste 0 -- -- 90
2019-02-08 23:00:00 7.9 4 Sudeste 6 Este 0 -- -- 88
2019-02-08 22:00:00 8.4 4 Este 12 Nordeste 0 -- -- 85
2019-02-08 21:00:00 9.5 10 Nordeste 27 Norte 0 -- -- 82
2019-02-08 20:00:00 10.3 13 Norte 17 Norte 0 -- -- 81
2019-02-08 19:00:00 13.4 0 Calma 4 Oeste 0 -- -- 74
2019-02-08 18:00:00 15.1 3 Sudoeste 7 Oeste 0 -- -- 69
2019-02-08 17:00:00 14.7 4 Sudoeste 10 Sudoeste 0 -- -- 72
2019-02-08 16:00:00 13.7 7 Sudoeste 9 Sudoeste 0 -- -- 76
2019-02-08 15:00:00 12.2 4 Oeste 10 Sudoeste 0 -- -- 85
2019-02-08 14:00:00 9.9 6 Oeste 10 Oeste 0 -- -- 92
2019-02-08 13:00:00 7.6 4 Nordeste 12 Nordeste 0 -- -- 100
2019-02-08 12:00:00 6.1 3 Norte 9 Norte 0 -- -- 100
2019-02-08 11:00:00 4.6 6 Norte 12 Norte 0 -- -- 100
2019-02-08 10:00:00 3.4 4 Nordeste 8 Nordeste 0 -- -- 99
2019-02-08 09:00:00 2.7 0 Calma 5 Este 0 -- -- 100
2019-02-08 08:00:00 2.7 0 Calma 5 Norte 0 -- -- 98
2019-02-08 07:00:00 4.1 4 Norte 6 Norte 0 -- -- 98
2019-02-08 06:00:00 3.6 3 Noroeste 6 Este 0 -- -- 97
2019-02-08 05:00:00 4.3 0 Calma 4 Norte 0 -- -- 97
2019-02-08 04:00:00 4.3 0 Calma 8 Sur 0 -- -- 93
2019-02-08 03:00:00 5 7 Sudeste 9 Sudeste 0 -- -- 92
2019-02-08 02:00:00 5.9 4 Este 6 Este 0 -- -- 94
2019-02-08 01:00:00 6.5 2 Este 4 Este 0 -- -- 89
2019-02-08 00:00:00 6.8 0 Calma 3 Nordeste 0 -- -- 89
2019-02-07 23:00:00 7.9 0 Calma 6 Sudeste 0 -- -- 85
2019-02-07 22:00:00 8.8 0 Calma 4 Sur 0 -- -- 81
2019-02-07 21:00:00 11 0 Calma 7 Noroeste 0 -- -- 73
2019-02-07 20:00:00 12.2 0 Calma 6 Oeste 0 -- -- 72
2019-02-07 19:00:00 14.3 4 Nordeste 8 Nordeste 0 -- -- 60
2019-02-07 18:00:00 15.4 7 Nordeste 17 Nordeste 0 -- -- 54
2019-02-07 17:00:00 15.5 11 Nordeste 17 Nordeste 0 -- -- 55
2019-02-07 16:00:00 15.2 7 Nordeste 14 Nordeste 0 -- -- 51
2019-02-07 15:00:00 14.2 8 Nordeste 16 Noroeste 0 -- -- 59
2019-02-07 14:00:00 12.5 6 Oeste 10 Oeste 0 -- -- 75
2019-02-07 13:00:00 10.5 4 Sudoeste 9 Sudoeste 0 -- -- 83
2019-02-07 12:00:00 7.4 0 Calma 9 Noroeste 0 -- -- 99
2019-02-07 11:00:00 5.6 0 Calma 5 Norte 0 -- -- 99
2019-02-07 10:00:00 4.3 2 Norte 4 Norte 0 -- -- 99
2019-02-07 09:00:00 2 3 Nordeste 9 Sudeste 0 -- -- 99
2019-02-07 08:00:00 3.4 4 Norte 6 Norte 0 -- -- 98
2019-02-07 07:00:00 4.1 4 Este 5 Este 0 -- -- 95
2019-02-07 06:00:00 4.4 4 Norte 5 Sudeste 0 -- -- 95
2019-02-07 05:00:00 5.4 5 Sudeste 6 Sudeste 0 -- -- 91
2019-02-07 04:00:00 5.6 0 Calma 5 Sudeste 0 -- -- 91
2019-02-07 03:00:00 6.1 0 Calma 3 Oeste 0 -- -- 90
2019-02-07 02:00:00 6.7 0 Calma 4 Sudeste 0 -- -- 88
2019-02-07 01:00:00 7.4 0 Calma 4 Nordeste 0 -- -- 85
2019-02-07 00:00:00 8.3 4 Este 7 Este 0 -- -- 81
2019-02-06 23:00:00 9.4 0 Calma 3 Noroeste 0 -- -- 80
2019-02-06 22:00:00 10.7 0 Calma 4 Sur 0 -- -- 75
2019-02-06 21:00:00 11.2 0 Calma 9 Noroeste 0 -- -- 76
2019-02-06 20:00:00 14.6 4 Sudeste 5 Sudeste 0 -- -- 54
2019-02-06 19:00:00 15.8 0 Calma 3 Oeste 0 -- -- 50
2019-02-06 18:00:00 17.7 3 Sur 5 Sur 0 -- -- 45
2019-02-06 17:00:00 18.1 4 Sur 6 Oeste 0 -- -- 44
2019-02-06 16:00:00 17.7 4 Oeste 9 Oeste 0 -- -- 42
2019-02-06 15:00:00 16.3 4 Oeste 9 Oeste 0 -- -- 51
2019-02-06 14:00:00 15.4 4 Oeste 9 Oeste 0 -- -- 68
2019-02-06 13:00:00 12.8 4 Norte 12 Noroeste 0 -- -- 72
2019-02-06 12:00:00 11 3 Noroeste 8 Sudoeste 0 -- -- 81
2019-02-06 11:00:00 8.4 0 Calma 9 Norte 0 -- -- 85
2019-02-06 10:00:00 5.4 0 Calma 5 Este 0 -- -- 91
2019-02-06 09:00:00 3.4 2 Este 10 Nordeste 0 -- -- 94
2019-02-06 08:00:00 3.4 6 Norte 11 Nordeste 0 -- -- 94
2019-02-06 07:00:00 3.4 4 Norte 8 Norte 0 -- -- 93
2019-02-06 06:00:00 3.4 0 Calma 4 Este 0 -- -- 91
2019-02-06 05:00:00 4.1 3 Norte 6 Norte 0 -- -- 90
2019-02-06 04:00:00 4.5 2 Este 3 Este 0 -- -- 88
2019-02-06 03:00:00 5.3 2 Norte 8 Norte 0 -- -- 87
2019-02-06 02:00:00 5.6 6 Norte 8 Norte 0 -- -- 88
2019-02-06 01:00:00 5.7 3 Nordeste 8 Este 0 -- -- 85
2019-02-06 00:00:00 7.2 0 Calma 5 Norte 0 -- -- 83
2019-02-05 23:00:00 8.3 3 Noroeste 8 Norte 0 -- -- 78
2019-02-05 22:00:00 9.4 2 Nordeste 9 Nordeste 0 -- -- 72
2019-02-05 21:00:00 10.6 4 Nordeste 13 Nordeste 0 -- -- 68
2019-02-05 20:00:00 11.6 10 Nordeste 13 Nordeste 0 -- -- 66
2019-02-05 19:00:00 12.8 9 Nordeste 13 Norte 0 -- -- 63
2019-02-05 18:00:00 15 9 Norte 15 Norte 0 -- -- 56
2019-02-05 17:00:00 15.7 11 Norte 16 Norte 0 -- -- 55
2019-02-05 16:00:00 15.6 9 Norte 16 Norte 0 -- -- 57
2019-02-05 15:00:00 14.9 9 Norte 16 Norte 0 -- -- 60
2019-02-05 14:00:00 13.9 8 Norte 15 Norte 0 -- -- 61
2019-02-05 13:00:00 12.1 8 Norte 17 Norte 0 -- -- 69
2019-02-05 12:00:00 9.2 10 Nordeste 15 Nordeste 0 -- -- 75
2019-02-05 11:00:00 6.8 8 Nordeste 12 Este 0 -- -- 81
2019-02-05 10:00:00 4 6 Nordeste 12 Nordeste 0 -- -- 89
2019-02-05 09:00:00 1.1 2 Norte 6 Norte 0 -- -- 95
2019-02-05 08:00:00 0.9 0 Calma 4 Nordeste 0 -- -- 94
2019-02-05 07:00:00 1.2 2 Este 5 Nordeste 0 -- -- 92
2019-02-05 06:00:00 1.9 2 Nordeste 4 Nordeste 0 -- -- 91
2019-02-05 05:00:00 2.6 0 Calma 7 Nordeste 0 -- -- 89
2019-02-05 04:00:00 2.5 0 Calma 5 Norte 0 -- -- 89
2019-02-05 03:00:00 3.4 0 Calma 8 Nordeste 0 -- -- 85
2019-02-05 02:00:00 3.7 0 Calma 6 Norte 0 -- -- 84
2019-02-05 01:00:00 4.6 3 Nordeste 9 Nordeste 0 -- -- 83
2019-02-05 00:00:00 5.5 6 Nordeste 10 Nordeste 0 -- -- 79
2019-02-04 23:00:00 5.7 2 Nordeste 5 Norte 0 -- -- 77
2019-02-04 22:00:00 7 2 Norte 5 Norte 0 -- -- 74
2019-02-04 21:00:00 7.9 0 Calma 8 Nordeste 0 -- -- 70
2019-02-04 20:00:00 9.3 3 Este 10 Nordeste 0 -- -- 59
2019-02-04 19:00:00 10.3 4 Nordeste 10 Nordeste 0 -- -- 59
2019-02-04 18:00:00 12.3 4 Nordeste 15 Norte 0 -- -- 56
2019-02-04 17:00:00 12.8 9 Nordeste 15 Nordeste 0 -- -- 46
2019-02-04 16:00:00 12.7 10 Nordeste 16 Norte 0 -- -- 42
2019-02-04 15:00:00 12.1 9 Nordeste 16 Nordeste 0 -- -- 44
2019-02-04 14:00:00 11.1 7 Norte 15 Norte 0 -- -- 52
2019-02-04 13:00:00 10.2 6 Norte 13 Norte 0 -- -- 63
2019-02-04 12:00:00 7.6 6 Nordeste 14 Nordeste 0 -- -- 70
2019-02-04 11:00:00 5 9 Norte 16 Norte 0 -- -- 78
2019-02-04 10:00:00 2 6 Nordeste 12 Norte 0 -- -- 86
2019-02-04 09:00:00 -0.4 0 Calma 5 Este 0 -- -- 92
2019-02-04 08:00:00 -0.3 3 Nordeste 9 Nordeste 0 -- -- 92
2019-02-04 07:00:00 -0.9 3 Nordeste 6 Este 0 -- -- 93
2019-02-04 06:00:00 -0.8 3 Este 6 Este 0 -- -- 91
2019-02-04 05:00:00 0.2 0 Calma 5 Norte 0 -- -- 91
2019-02-04 04:00:00 1.1 0 Calma 5 Norte 0 -- -- 88
2019-02-04 03:00:00 0.9 0 Calma 7 Este 0 -- -- 83
2019-02-04 02:00:00 1.7 2 Este 7 Nordeste 0 -- -- 83
2019-02-04 01:00:00 2.4 0 Calma 5 Este 0 -- -- 80
2019-02-04 00:00:00 2.8 3 Nordeste 9 Sur 0 -- -- 76
2019-02-03 23:00:00 4.6 0 Calma 4 Nordeste 0 -- -- 76
2019-02-03 22:00:00 5 3 Sudoeste 12 Nordeste 0 -- -- 71
2019-02-03 21:00:00 6.3 9 Nordeste 15 Nordeste 0 -- -- 64
2019-02-03 20:00:00 7.8 7 Nordeste 10 Nordeste 0 -- -- 60
2019-02-03 19:00:00 9 7 Nordeste 16 Norte 0 -- -- 57
2019-02-03 18:00:00 10.7 10 Norte 24 Nordeste 0 -- -- 48
2019-02-03 17:00:00 11.2 16 Norte 30 Norte 0 -- -- 50
2019-02-03 16:00:00 11.3 15 Nordeste 30 Norte 0 -- -- 46
2019-02-03 15:00:00 11.3 14 Norte 29 Norte 0 -- -- 50
2019-02-03 14:00:00 10.3 14 Nordeste 27 Este 0 -- -- 53
2019-02-03 13:00:00 9.6 13 Nordeste 25 Nordeste 0 -- -- 58
2019-02-03 12:00:00 7.9 10 Nordeste 18 Nordeste 0 -- -- 66
2019-02-03 11:00:00 5.4 0 Calma 5 Norte 0 -- -- 83
2019-02-03 10:00:00 2.5 0 Calma 5 Sudeste 0 -- -- 95
2019-02-03 09:00:00 0.5 3 Sudeste 13 Este 0 -- -- 95
2019-02-03 08:00:00 0.8 6 Sudeste 15 Sudeste 0 -- -- 94
2019-02-03 07:00:00 1.1 5 Sudeste 11 Sudeste 0 -- -- 93
2019-02-03 06:00:00 1.2 6 Sudeste 9 Sudeste 0 -- -- 92
2019-02-03 05:00:00 2 3 Sudeste 10 Este 0 -- -- 89
2019-02-03 04:00:00 3.1 10 Este 16 Norte 0 -- -- 87
2019-02-03 03:00:00 4.4 9 Norte 16 Norte 0 -- -- 83
2019-02-03 02:00:00 4.7 6 Norte 17 Norte 0 -- -- 80
2019-02-03 01:00:00 5 12 Norte 21 Norte 0 -- -- 78
2019-02-03 00:00:00 5.2 11 Norte 18 Norte 0 -- -- 77
2019-02-02 23:00:00 5.9 9 Norte 24 Norte 0 -- -- 72
2019-02-02 22:00:00 6.4 9 Norte 19 Noroeste 0 -- -- 69
2019-02-02 21:00:00 6.9 12 Norte 19 Norte 0 -- -- 66
2019-02-02 20:00:00 7.7 7 Norte 26 Norte 0 -- -- 61
2019-02-02 19:00:00 9.2 15 Norte 27 Noroeste 0 -- -- 55
2019-02-02 18:00:00 10.8 22 Norte 40 Noroeste 0 -- -- 47
2019-02-02 17:00:00 11.7 28 Norte 46 Noroeste 0 -- -- 44
2019-02-02 16:00:00 11.8 27 Norte 45 Norte 0 -- -- 42
2019-02-02 15:00:00 11.5 27 Norte 41 Norte 0 -- -- 45
2019-02-02 14:00:00 11 25 Norte 43 Norte 0 -- -- 55
2019-02-02 13:00:00 10.3 27 Norte 40 Noroeste 0 -- -- 56
2019-02-02 12:00:00 9.5 17 Norte 44 Norte 0 -- -- 61
2019-02-02 11:00:00 8.4 25 Norte 41 Norte 0 -- -- 65
2019-02-02 10:00:00 7.1 23 Norte 36 Norte 0 -- -- 75
2019-02-02 09:00:00 5.6 9 Noroeste 17 Norte 0 -- -- 85
2019-02-02 08:00:00 5.9 9 Noroeste 32 Noroeste 0 -- -- 88
2019-02-02 07:00:00 6.4 19 Noroeste 33 Noroeste 0 -- -- 87
2019-02-02 06:00:00 6.6 18 Noroeste 29 Noroeste 0 -- -- 89
2019-02-02 05:00:00 6.8 17 Noroeste 34 Noroeste 0 -- -- 90
2019-02-02 04:00:00 7.4 21 Noroeste 34 Noroeste 0.2 -- -- 89
2019-02-02 03:00:00 7.3 11 Oeste 19 Oeste 0 -- -- 89
2019-02-02 02:00:00 7.6 10 Oeste 18 Oeste 0 -- -- 87
2019-02-02 01:00:00 7.6 12 Noroeste 27 Noroeste 0 -- -- 88
2019-02-02 00:00:00 7.2 10 Oeste 21 Oeste 0 -- -- 91
2019-02-01 23:00:00 6.7 10 Sudoeste 17 Sudoeste 0 -- -- 91
2019-02-01 22:00:00 6.4 6 Sudoeste 19 Norte 0 -- -- 92
2019-02-01 21:00:00 6.2 0 Calma 24 Oeste 0 -- -- 91
2019-02-01 20:00:00 6.3 16 Oeste 30 Norte 0.2 -- -- 91
2019-02-01 19:00:00 6.1 28 Norte 46 Noroeste 1.4 -- -- 92
2019-02-01 18:00:00 10.4 24 Noroeste 46 Oeste 0 -- -- 77
2019-02-01 17:00:00 10.5 24 Noroeste 73 Noroeste 0 -- -- 70
2019-02-01 16:00:00 10 23 Noroeste 69 Oeste 0.6 -- -- 83
2019-02-01 15:00:00 12.1 39 Oeste 69 Oeste 0.2 -- -- 73
2019-02-01 14:00:00 10.5 45 Oeste 64 Oeste -- -- -- 82
2019-02-01 13:00:00 12.4 33 Oeste 66 Oeste 0 -- -- 75
2019-02-01 12:00:00 11.7 36 Oeste 62 Oeste 0 -- -- 73
2019-02-01 11:00:00 10.7 25 Oeste 40 Oeste 0 -- -- 80
2019-02-01 10:00:00 9.6 13 Oeste 23 Oeste 0 -- -- 89
2019-02-01 09:00:00 9.6 16 Oeste 26 Oeste 0 -- -- 87
2019-02-01 08:00:00 9.9 14 Oeste 24 Oeste 0 -- -- 92
2019-02-01 07:00:00 10 19 Oeste 27 Oeste 0 -- -- 93
2019-02-01 06:00:00 10.2 11 Oeste 30 Oeste 0 -- -- 94
2019-02-01 05:00:00 10.3 17 Oeste 39 Noroeste 0 -- -- 92
2019-02-01 04:00:00 11 26 Noroeste 42 Noroeste 0.8 -- -- 96
2019-02-01 03:00:00 12 21 Oeste 34 Oeste 3.6 -- -- 98
2019-02-01 02:00:00 12.8 20 Oeste 45 Oeste 4 -- -- 97
2019-02-01 01:00:00 13.1 24 Sudoeste 37 Sudoeste 1.6 -- -- 100
2019-02-01 00:00:00 12.7 25 Sudoeste 39 Sudoeste 0.6 -- -- 99
2019-01-31 23:00:00 12.4 29 Sudoeste 46 Sudoeste 0.4 -- -- 99
2019-01-31 22:00:00 12.4 32 Sudoeste 45 Sudoeste 0.2 -- -- 98
2019-01-31 21:00:00 12.5 24 Sudoeste 36 Sudoeste 0 -- -- 94
2019-01-31 20:00:00 12.9 26 Sudoeste 46 Oeste 0 -- -- 93
2019-01-31 19:00:00 13.2 23 Sudoeste 35 Sudoeste 0 -- -- 89
2019-01-31 18:00:00 13.8 20 Sudoeste 42 Oeste 0 -- -- 85
2019-01-31 17:00:00 14.1 27 Oeste 41 Oeste 0 -- -- 81
2019-01-31 16:00:00 13.8 26 Oeste 50 Oeste 0 -- -- 84
2019-01-31 15:00:00 14 30 Oeste 51 Oeste 0 -- -- 89
2019-01-31 14:00:00 15.4 28 Oeste 51 Oeste 0 -- -- 83
2019-01-31 13:00:00 14.9 30 Oeste 50 Oeste 0 -- -- 85
2019-01-31 12:00:00 13.9 31 Oeste 46 Oeste 0.2 -- -- 91
2019-01-31 11:00:00 12.4 19 Sudoeste 32 Sudoeste 0 -- -- 97
2019-01-31 10:00:00 12.1 17 Sudoeste 28 Sudoeste 0 -- -- 97
2019-01-31 09:00:00 12.1 18 Oeste 30 Oeste 0 -- -- 97
2019-01-31 08:00:00 12 19 Oeste 28 Oeste 0 -- -- 96
2019-01-31 07:00:00 12 14 Oeste 27 Oeste 0 -- -- 96
2019-01-31 06:00:00 12.1 24 Oeste 35 Oeste 1 -- -- 98
2019-01-31 05:00:00 12.2 17 Oeste 32 Oeste 0.2 -- -- 98
2019-01-31 04:00:00 12.4 17 Oeste 36 Oeste 0 -- -- 96
2019-01-31 03:00:00 12.5 23 Oeste 34 Oeste 0 -- -- 95
2019-01-31 02:00:00 12.2 15 Oeste 26 Oeste 0 -- -- 97
2019-01-31 01:00:00 12 17 Oeste 28 Sudoeste 0.2 -- -- 97
2019-01-31 00:00:00 11.9 19 Oeste 32 Oeste 0.4 -- -- 98
2019-01-30 23:00:00 11.7 21 Oeste 31 Oeste 0 -- -- 97
2019-01-30 22:00:00 11.8 17 Sudoeste 27 Oeste 0 -- -- 95
2019-01-30 21:00:00 11.7 17 Sudoeste 26 Oeste 0 -- -- 94
2019-01-30 20:00:00 11.9 17 Oeste 28 Oeste 0 -- -- 93
2019-01-30 19:00:00 12.3 20 Oeste 32 Oeste 0.2 -- -- 94
2019-01-30 18:00:00 11.9 18 Sudoeste 24 Sudoeste 0 -- -- 98
2019-01-30 17:00:00 11.4 13 Sudoeste 24 Sudoeste 0 -- -- 98
2019-01-30 16:00:00 11.3 15 Sudoeste 26 Sudoeste 0.2 -- -- 96
2019-01-30 15:00:00 11 18 Sudoeste 27 Sudoeste 0.4 -- -- 94
2019-01-30 14:00:00 11.7 11 Sudoeste 18 Sudoeste 0.2 -- -- 89
2019-01-30 13:00:00 11.4 11 Sudoeste 17 Sudoeste 0 -- -- 87
2019-01-30 12:00:00 11.2 8 Sudoeste 10 Sudoeste 0 -- -- 88
2019-01-30 11:00:00 10.9 3 Oeste 8 Oeste 0 -- -- 88
2019-01-30 10:00:00 9.3 5 Oeste 8 Oeste 0 -- -- 93
2019-01-30 09:00:00 8.7 0 Calma 13 Noroeste 0 -- -- 95
2019-01-30 08:00:00 9 9 Noroeste 14 Noroeste 0 -- -- 95
2019-01-30 07:00:00 9.2 8 Noroeste 15 Noroeste 0 -- -- 95
2019-01-30 06:00:00 9.5 11 Noroeste 17 Oeste 0 -- -- 95
2019-01-30 05:00:00 9.6 10 Noroeste 18 Noroeste 0 -- -- 94
2019-01-30 04:00:00 9.8 12 Noroeste 18 Noroeste 0 -- -- 95
2019-01-30 03:00:00 9.9 8 Noroeste 13 Noroeste 0 -- -- 94
2019-01-30 02:00:00 9.8 9 Noroeste 16 Noroeste 0 -- -- 94
2019-01-30 01:00:00 10.4 10 Noroeste 21 Noroeste 0.2 -- -- 97
2019-01-30 00:00:00 10.9 15 Oeste 26 Oeste 0 -- -- 97
2019-01-29 23:00:00 10.6 15 Oeste 27 Oeste 0 -- -- 96
2019-01-29 22:00:00 10.6 17 Oeste 27 Oeste 0 -- -- 95
2019-01-29 21:00:00 10.9 13 Oeste 26 Oeste 0 -- -- 92
2019-01-29 20:00:00 11.3 17 Oeste 25 Oeste 0 -- -- 88
2019-01-29 19:00:00 11.6 14 Oeste 30 Noroeste 0 -- -- 86
2019-01-29 18:00:00 12.1 22 Noroeste 32 Oeste 0 -- -- 83
2019-01-29 17:00:00 12.7 15 Noroeste 44 Noroeste 0 -- -- 82
2019-01-29 16:00:00 13.1 19 Noroeste 40 Oeste 0 -- -- 78
2019-01-29 15:00:00 13.2 23 Oeste 34 Oeste 0 -- -- 79
2019-01-29 14:00:00 12.7 21 Noroeste 34 Oeste 0 -- -- 83
2019-01-29 13:00:00 12.3 20 Oeste 33 Noroeste 0 -- -- 87
2019-01-29 12:00:00 11.5 17 Noroeste 31 Oeste 0 -- -- 92
2019-01-29 11:00:00 10.4 9 Sudoeste 14 Sudoeste 0 -- -- 93
2019-01-29 10:00:00 9.4 7 Oeste 13 Oeste 0 -- -- 95
2019-01-29 09:00:00 9 6 Oeste 10 Oeste 0 -- -- 93
2019-01-29 08:00:00 9.3 6 Noroeste 9 Oeste 0 -- -- 92
2019-01-29 07:00:00 9.1 5 Noroeste 13 Noroeste 0 -- -- 93
2019-01-29 06:00:00 9.1 9 Noroeste 14 Noroeste 0 -- -- 94
2019-01-29 05:00:00 9.6 10 Oeste 15 Oeste 0 -- -- 93
2019-01-29 04:00:00 9.1 3 Sudoeste 9 Noroeste 0 -- -- 94
2019-01-29 03:00:00 8.9 6 Noroeste 14 Oeste 0 -- -- 94
2019-01-29 02:00:00 9.3 10 Noroeste 18 Noroeste 0 -- -- 92
2019-01-29 01:00:00 10.4 7 Oeste 17 Oeste 0 -- -- 89
2019-01-29 00:00:00 10.5 6 Oeste 13 Noroeste 0 -- -- 90
2019-01-28 23:00:00 10 5 Noroeste 15 Oeste 0 -- -- 89
2019-01-28 22:00:00 10.3 9 Oeste 15 Oeste 0 -- -- 86
2019-01-28 21:00:00 11.1 6 Noroeste 14 Oeste 0 -- -- 82
2019-01-28 20:00:00 11.1 7 Noroeste 12 Oeste 0 -- -- 80
2019-01-28 19:00:00 12.4 10 Noroeste 27 Noroeste 0 -- -- 76
2019-01-28 18:00:00 13.4 21 Noroeste 36 Noroeste 0 -- -- 72
2019-01-28 17:00:00 13.8 17 Norte 32 Norte 0 -- -- 72
2019-01-28 16:00:00 13.9 15 Norte 32 Norte 0 -- -- 69
2019-01-28 15:00:00 13 18 Noroeste 29 Noroeste 0 -- -- 73
2019-01-28 14:00:00 12.7 19 Noroeste 35 Noroeste 0 -- -- 73
2019-01-28 13:00:00 12.6 21 Noroeste 36 Norte 0 -- -- 73
2019-01-28 12:00:00 11.8 21 Noroeste 30 Norte 0 -- -- 77
2019-01-28 11:00:00 10 3 Noroeste 13 Oeste 0 -- -- 83
2019-01-28 10:00:00 7.8 2 Sudoeste 10 Noroeste 0 -- -- 89
2019-01-28 09:00:00 7.4 8 Noroeste 30 Norte 0 -- -- 90
2019-01-28 08:00:00 7.5 18 Norte 32 Norte 0 -- -- 87
2019-01-28 07:00:00 5.8 5 Norte 18 Norte 0 -- -- 89
2019-01-28 06:00:00 6.8 14 Norte 32 Norte 0 -- -- 85
2019-01-28 05:00:00 6.9 18 Norte 26 Norte 0 -- -- 84
2019-01-28 04:00:00 6.7 12 Norte 20 Norte 0 -- -- 85
2019-01-28 03:00:00 6.5 12 Norte 18 Norte 0 -- -- 86
2019-01-28 02:00:00 6 10 Norte 18 Norte 0 -- -- 90
2019-01-28 01:00:00 6.5 8 Norte 27 Norte 0 -- -- 86
2019-01-28 00:00:00 8.1 18 Norte 28 Norte 0 -- -- 80
2019-01-27 23:00:00 8.6 17 Norte 30 Norte 0 -- -- 77
2019-01-27 22:00:00 8.8 16 Norte 31 Norte 0 -- -- 75
2019-01-27 21:00:00 8.9 12 Norte 18 Norte 0 -- -- 73
2019-01-27 20:00:00 9.9 10 Noroeste 20 Noroeste 0 -- -- 70
2019-01-27 19:00:00 11.1 11 Noroeste 28 Norte 0 -- -- 64
2019-01-27 18:00:00 13.1 19 Noroeste 32 Noroeste 0 -- -- 54
2019-01-27 17:00:00 13.6 17 Norte 34 Norte 0 -- -- 54
2019-01-27 16:00:00 13.9 22 Norte 39 Norte 0 -- -- 56
2019-01-27 15:00:00 13 22 Norte 37 Norte 0 -- -- 60
2019-01-27 14:00:00 12.5 23 Norte 41 Norte 0 -- -- 63
2019-01-27 13:00:00 11.6 20 Norte 37 Noroeste 0 -- -- 71
2019-01-27 12:00:00 11.3 13 Norte 26 Noroeste 0 -- -- 74
2019-01-27 11:00:00 7.5 4 Sudoeste 9 Sudeste 0 -- -- 100
2019-01-27 10:00:00 5.6 4 Sudeste 8 Sudeste 0 -- -- 100
2019-01-27 09:00:00 3.3 5 Este 9 Sudeste 0 -- -- 100
2019-01-27 08:00:00 2.6 6 Sudeste 8 Sudeste 0 -- -- 99
2019-01-27 07:00:00 2.8 4 Sudeste 9 Sudeste 0 -- -- 98
2019-01-27 06:00:00 3.7 5 Sudeste 7 Sudeste 0 -- -- 97
2019-01-27 05:00:00 4.6 0 Calma 4 Norte 0 -- -- 98
2019-01-27 04:00:00 5.1 0 Calma 5 Norte 0 -- -- 98
2019-01-27 03:00:00 5.3 4 Sudeste 8 Sudeste 0 -- -- 93
2019-01-27 02:00:00 5.9 3 Sur 9 Sur 0 -- -- 95
2019-01-27 01:00:00 7.6 0 Calma 6 Noroeste 0 -- -- 90
2019-01-27 00:00:00 7.5 2 Sudeste 8 Sudeste 0 -- -- 92
2019-01-26 23:00:00 7.8 4 Norte 13 Sudeste 0 -- -- 93
2019-01-26 22:00:00 10.1 7 Sudeste 9 Sudeste 0 -- -- 84
2019-01-26 21:00:00 11.9 0 Calma 5 Sudoeste 0 -- -- 79
2019-01-26 20:00:00 13.7 0 Calma 3 Oeste 0 -- -- 70
2019-01-26 19:00:00 15.6 0 Calma 0 Calma 0 -- -- 63
2019-01-26 18:00:00 17.7 0 Calma 7 Sudoeste 0 -- -- 59
2019-01-26 17:00:00 17.6 5 Oeste 10 Sudoeste 0 -- -- 55
2019-01-26 16:00:00 17.2 7 Oeste 10 Oeste 0 -- -- 63
2019-01-26 15:00:00 16.3 4 Oeste 9 Sudoeste 0 -- -- 66
2019-01-26 14:00:00 14.8 6 Oeste 11 Oeste 0 -- -- 71
2019-01-26 13:00:00 13.1 6 Oeste 8 Oeste 0 -- -- 80
2019-01-26 12:00:00 10.7 4 Norte 10 Norte 0 -- -- 86
2019-01-26 11:00:00 8.5 0 Calma 6 Noroeste 0 -- -- 92
2019-01-26 10:00:00 5.4 2 Nordeste 10 Nordeste 0 -- -- 97
2019-01-26 09:00:00 3.7 4 Norte 8 Norte 0 -- -- 98
2019-01-26 08:00:00 3.1 0 Calma 6 Este 0 -- -- 97
2019-01-26 07:00:00 4.1 2 Nordeste 9 Norte 0 -- -- 96
2019-01-26 06:00:00 4.4 2 Nordeste 4 Norte 0 -- -- 96
2019-01-26 05:00:00 4.4 4 Este 7 Este 0 -- -- 97
2019-01-26 04:00:00 4.6 3 Sudeste 8 Sur 0 -- -- 94
2019-01-26 03:00:00 6.1 0 Calma 5 Norte 0 -- -- 94
2019-01-26 02:00:00 7 0 Calma 4 Este 0 -- -- 93
2019-01-26 01:00:00 7.3 0 Calma 7 Nordeste 0 -- -- 91
2019-01-26 00:00:00 8.4 5 Nordeste 5 Nordeste 0 -- -- 90
2019-01-25 23:00:00 9.6 0 Calma 11 Nordeste 0 -- -- 86
2019-01-25 22:00:00 10.8 4 Nordeste 7 Nordeste 0 -- -- 83
2019-01-25 21:00:00 12.4 0 Calma 17 Nordeste 0 -- -- 78
2019-01-25 20:00:00 13.7 12 Nordeste 15 Nordeste 0 -- -- 73
2019-01-25 19:00:00 14 10 Nordeste 12 Norte 0 -- -- 73
2019-01-25 18:00:00 17.1 8 Norte 16 Norte 0 -- -- 63
2019-01-25 17:00:00 17.8 10 Norte 20 Norte 0 -- -- 61
2019-01-25 16:00:00 18 9 Norte 18 Norte 0 -- -- 61
2019-01-25 15:00:00 18 8 Noroeste 17 Norte 0 -- -- 62
2019-01-25 14:00:00 16.9 5 Este 18 Norte 0 -- -- 61
2019-01-25 13:00:00 15 14 Nordeste 21 Norte 0 -- -- 69
2019-01-25 12:00:00 13.2 9 Nordeste 20 Nordeste 0 -- -- 76
2019-01-25 11:00:00 9.9 13 Nordeste 20 Nordeste 0 -- -- 88
2019-01-25 10:00:00 6.4 2 Noroeste 4 Norte 0 -- -- 99
2019-01-25 09:00:00 4.4 0 Calma 6 Sur 0 -- -- 99
2019-01-25 08:00:00 5.1 2 Nordeste 5 Nordeste 0 -- -- 98
2019-01-25 07:00:00 5.7 3 Nordeste 8 Nordeste 0 -- -- 97
2019-01-25 06:00:00 5.9 0 Calma 4 Norte 0 -- -- 98
2019-01-25 05:00:00 6.3 0 Calma 10 Sur 0 -- -- 97
2019-01-25 04:00:00 7.5 8 Nordeste 16 Norte 0 -- -- 98
2019-01-25 03:00:00 7 5 Este 7 Nordeste 0 -- -- 97
2019-01-25 02:00:00 7.4 3 Nordeste 8 Sudeste 0 -- -- 96
2019-01-25 01:00:00 8.3 3 Norte 7 Sur 0 -- -- 96
2019-01-25 00:00:00 9.1 3 Sur 12 Sur 0 -- -- 94
2019-01-24 23:00:00 10.2 4 Sudeste 8 Sudeste 0 -- -- 91
2019-01-24 22:00:00 10.9 5 Nordeste 13 Norte 0 -- -- 90
2019-01-24 21:00:00 12.6 8 Norte 20 Norte 0 -- -- 85
2019-01-24 20:00:00 13.5 13 Norte 22 Norte 0 -- -- 81
2019-01-24 19:00:00 15 10 Norte 28 Norte 0 -- -- 75
2019-01-24 18:00:00 16.7 18 Norte 31 Norte 0 -- -- 69
2019-01-24 17:00:00 18.3 11 Norte 33 Norte 0 -- -- 64
2019-01-24 16:00:00 18.1 23 Norte 34 Norte 0 -- -- 63
2019-01-24 15:00:00 18 15 Norte 27 Norte 0 -- -- 63
2019-01-24 14:00:00 17.1 16 Norte 30 Noroeste 0 -- -- 66
2019-01-24 13:00:00 15.8 19 Norte 30 Noroeste 0 -- -- 73
2019-01-24 12:00:00 14.6 21 Norte 36 Norte 0 -- -- 78
2019-01-24 11:00:00 13 5 Norte 16 Noroeste 0 -- -- 85
2019-01-24 10:00:00 10.6 4 Sudeste 8 Sudeste 0 -- -- 93
2019-01-24 09:00:00 8.9 2 Sur 9 Sudeste 0 -- -- 94
2019-01-24 08:00:00 9.6 0 Calma 9 Noroeste 0 -- -- 93
2019-01-24 07:00:00 10.7 2 Oeste 20 Norte 0 -- -- 88
2019-01-24 06:00:00 10.9 12 Norte 20 Norte 0 -- -- 88
2019-01-24 05:00:00 11.4 10 Norte 23 Noroeste 0 -- -- 86
2019-01-24 04:00:00 11.9 14 Norte 24 Norte 0 -- -- 85
2019-01-24 03:00:00 12.2 17 Norte 33 Noroeste 0 -- -- 84
2019-01-24 02:00:00 12 18 Norte 30 Norte 0 -- -- 84
2019-01-24 01:00:00 12.1 19 Norte 37 Noroeste 0 -- -- 84
2019-01-24 00:00:00 12 20 Noroeste 32 Noroeste 0 -- -- 84